Time;durP1;ratioP1;P1;durP2;ratioP2;P2;SDS_P1;SDS_P2;PMS_P1;PMS_P2;Temp;Humidity;BMP_temperature;BMP_pressure;BME280_temperature;BME280_humidity;BME280_pressure;Samples;Min_cycle;Max_cycle;Signal;HPM_P1;HPM_P2
2021/03/29 00:03:00;;;;;;;4.93;3.10;;;;;;;2.05;79.81;100895.97;5093531;28;20209;-79
2021/03/29 00:09:45;;;;;;;5.43;3.60;;;;;;;1.82;80.16;100881.28;5060846;28;20231;-79
2021/03/29 00:12:53;;;;;;;7.70;3.83;;;;;;;1.90;80.46;100897.31;5097692;22;20672;-79
2021/03/29 00:16:18;;;;;;;4.90;3.30;;;;;;;1.80;80.42;100893.78;5073800;28;20207;-80
2021/03/29 00:20:01;;;;;;;7.40;3.30;;;;;;;1.86;80.02;100906.47;5068380;28;20217;-79
2021/03/29 00:23:45;;;;;;;5.30;3.50;;;;;;;1.86;80.11;100911.75;5160389;22;20241;-79
2021/03/29 00:27:01;;;;;;;5.63;3.43;;;;;;;1.81;79.72;100891.03;5063734;22;20256;-79
2021/03/29 00:30:25;;;;;;;5.20;3.70;;;;;;;1.82;79.94;100879.47;5136713;22;20223;-79
2021/03/29 00:34:24;;;;;;;4.77;3.33;;;;;;;1.86;80.07;100880.88;5009945;23;20236;-79
2021/03/29 00:37:26;;;;;;;5.97;3.60;;;;;;;1.82;79.50;100866.25;5087240;22;20237;-79
2021/03/29 00:41:15;;;;;;;6.17;3.60;;;;;;;2.19;79.24;100911.47;5026561;28;20225;-79
2021/03/29 00:49:08;;;;;;;5.83;3.33;;;;;;;2.38;79.78;100900.91;5165487;23;20233;-79
2021/03/29 00:52:40;;;;;;;4.60;2.93;;;;;;;2.40;79.07;100883.09;5073004;28;20225;-79
2021/03/29 00:56:30;;;;;;;6.00;3.10;;;;;;;2.57;78.43;100882.44;5077952;28;20237;-79
2021/03/29 00:59:46;;;;;;;7.03;3.27;;;;;;;2.89;77.46;100897.22;5078344;28;20216;-81
2021/03/29 01:03:24;;;;;;;4.70;2.50;;;;;;;3.09;76.08;100909.47;5058304;28;20188;-79
2021/03/29 01:07:14;;;;;;;6.20;2.70;;;;;;;3.16;75.39;100888.56;5076695;23;20647;-79
2021/03/29 01:10:22;;;;;;;7.63;2.87;;;;;;;3.39;74.44;100876.66;5002160;28;20230;-79
2021/03/29 01:13:56;;;;;;;6.97;2.90;;;;;;;3.63;73.50;100900.88;5016377;28;20187;-79
2021/03/29 01:17:28;;;;;;;5.07;2.70;;;;;;;3.68;73.64;100887.19;4982791;28;20207;-79
2021/03/29 01:21:18;;;;;;;6.97;2.90;;;;;;;3.83;72.85;100896.31;5085843;23;20294;-79
2021/03/29 01:25:04;;;;;;;5.83;2.43;;;;;;;3.81;72.71;100877.09;5156530;23;20230;-79
2021/03/29 01:28:27;;;;;;;5.27;2.60;;;;;;;3.84;72.17;100868.84;5016540;28;20296;-79
2021/03/29 01:31:56;;;;;;;5.90;2.73;;;;;;;4.06;71.76;100888.84;5077467;23;20218;-79
2021/03/29 01:38:25;;;;;;;6.40;2.60;;;;;;;4.20;71.34;100897.13;5023098;28;20246;-79
2021/03/29 01:41:50;;;;;;;4.20;2.60;;;;;;;4.24;71.13;100893.22;5039792;23;20599;-80
2021/03/29 01:45:24;;;;;;;6.50;2.57;;;;;;;4.30;71.02;100887.28;5101103;23;20249;-79
2021/03/29 01:48:48;;;;;;;6.33;2.90;;;;;;;4.31;70.99;100888.97;5045535;23;20222;-79
2021/03/29 01:52:20;;;;;;;5.47;2.90;;;;;;;4.35;71.32;100897.47;5096634;23;20241;-80
2021/03/29 01:55:48;;;;;;;4.53;2.67;;;;;;;4.37;71.02;100893.69;5081113;23;20305;-79
2021/03/29 01:59:05;;;;;;;7.20;2.97;;;;;;;4.34;71.00;100886.00;4973867;28;20241;-79
2021/03/29 02:02:57;;;;;;;5.40;3.27;;;;;;;4.37;71.17;100884.91;5012371;28;20235;-79
2021/03/29 02:06:15;;;;;;;5.10;2.93;;;;;;;4.28;71.17;100881.31;5014288;28;20236;-79
2021/03/29 02:10:15;;;;;;;6.03;2.77;;;;;;;4.38;71.26;100892.72;5014825;28;20251;-79
2021/03/29 02:13:44;;;;;;;5.33;3.00;;;;;;;4.42;71.40;100901.22;5009700;28;20239;-79
2021/03/29 02:17:20;;;;;;;3.77;2.77;;;;;;;4.36;71.29;100878.75;4987781;28;20234;-79
2021/03/29 02:21:08;;;;;;;4.77;3.20;;;;;;;4.35;71.45;100874.41;4995081;28;20188;-79
2021/03/29 02:24:30;;;;;;;5.50;2.90;;;;;;;4.03;71.49;100838.72;5000192;23;20233;-79
2021/03/29 02:28:24;;;;;;;4.10;2.53;;;;;;;4.27;71.96;100882.28;5030231;28;20261;-79
2021/03/29 02:31:40;;;;;;;7.63;3.00;;;;;;;3.95;72.53;100845.63;5044282;23;20227;-80
2021/03/29 02:35:32;;;;;;;5.37;2.90;;;;;;;4.22;72.80;100889.03;5092244;22;20252;-79
2021/03/29 02:38:54;;;;;;;5.37;2.60;;;;;;;4.23;73.17;100888.88;5091150;23;20235;-79
2021/03/29 02:42:20;;;;;;;6.10;2.93;;;;;;;4.16;73.37;100884.31;5099098;22;20652;-79
2021/03/29 02:45:19;;;;;;;4.67;2.87;;;;;;;4.19;73.20;100874.25;5077068;28;20294;-79
2021/03/29 02:49:04;;;;;;;6.57;3.33;;;;;;;3.99;73.72;100847.00;5079966;23;20508;-80
2021/03/29 02:53:09;;;;;;;6.50;3.23;;;;;;;4.19;73.58;100892.81;5068928;28;20233;-79
2021/03/29 02:56:59;;;;;;;4.87;2.83;;;;;;;4.19;74.27;100894.63;5032580;28;20204;-79
2021/03/29 03:00:02;;;;;;;5.47;3.10;;;;;;;4.22;73.84;100883.72;5051131;23;20229;-79
2021/03/29 03:03:52;;;;;;;7.67;2.90;;;;;;;4.23;73.68;100888.88;5073679;23;20226;-79
2021/03/29 03:07:03;;;;;;;4.80;2.93;;;;;;;3.96;74.11;100847.31;5060277;23;20293;-80
2021/03/29 03:10:58;;;;;;;4.70;3.00;;;;;;;4.22;73.80;100887.22;5032030;28;20250;-79
2021/03/29 03:14:24;;;;;;;3.50;2.67;;;;;;;3.91;74.04;100843.41;5029921;23;20221;-80
2021/03/29 03:18:08;;;;;;;5.23;2.70;;;;;;;4.17;74.22;100880.66;5051887;23;20237;-79
2021/03/29 03:21:40;;;;;;;5.17;2.87;;;;;;;4.14;74.29;100887.13;5036944;28;20697;-79
2021/03/29 03:25:07;;;;;;;3.97;2.80;;;;;;;4.12;74.40;100881.13;5051770;28;20653;-79
2021/03/29 03:28:17;;;;;;;4.77;2.63;;;;;;;4.13;74.44;100881.97;5052018;28;20260;-79
2021/03/29 03:31:31;;;;;;;4.30;2.70;;;;;;;4.04;73.95;100867.78;5076342;23;20241;-80
2021/03/29 03:34:46;;;;;;;5.00;3.00;;;;;;;4.15;74.00;100882.66;5071282;23;20223;-80
2021/03/29 03:38:46;;;;;;;4.40;2.70;;;;;;;4.16;73.98;100886.94;5048374;28;20260;-79
2021/03/29 03:42:57;;;;;;;5.40;2.90;;;;;;;4.11;74.46;100862.69;5051466;28;20221;-79
2021/03/29 03:46:41;;;;;;;4.53;2.90;;;;;;;4.28;74.03;100878.66;5037025;28;20214;-79
2021/03/29 03:50:26;;;;;;;7.63;2.70;;;;;;;4.32;73.79;100876.53;5052148;28;20205;-79
2021/03/29 03:54:09;;;;;;;8.47;2.90;;;;;;;4.36;73.90;100878.75;5048850;28;20261;-79
2021/03/29 03:57:16;;;;;;;5.93;2.43;;;;;;;4.22;74.02;100844.78;5163278;23;20207;-79
2021/03/29 04:00:37;;;;;;;7.87;2.93;;;;;;;4.30;73.84;100863.41;5141874;23;20209;-79
2021/03/29 04:04:18;;;;;;;5.17;2.50;;;;;;;4.40;73.67;100874.81;5072426;28;20247;-79
2021/03/29 04:08:17;;;;;;;4.23;2.70;;;;;;;4.41;73.64;100881.78;5006241;23;20280;-79
2021/03/29 04:11:59;;;;;;;6.13;2.83;;;;;;;4.39;73.68;100878.44;5073223;23;20232;-79
2021/03/29 04:15:46;;;;;;;8.77;2.80;;;;;;;4.36;73.69;100877.91;5074089;28;20215;-79
2021/03/29 04:19:10;;;;;;;4.70;2.70;;;;;;;4.33;74.09;100883.53;5071265;28;20217;-79
2021/03/29 04:23:08;;;;;;;5.40;3.00;;;;;;;4.24;73.93;100877.28;4987799;28;20279;-79
2021/03/29 04:27:02;;;;;;;6.40;2.83;;;;;;;4.34;74.15;100887.81;5137134;23;20225;-79
2021/03/29 04:30:46;;;;;;;7.10;2.67;;;;;;;4.25;73.93;100864.84;5065594;23;20253;-79
2021/03/29 04:34:04;;;;;;;6.03;2.43;;;;;;;4.44;74.04;100885.94;5075098;23;20237;-79
2021/03/29 04:37:39;;;;;;;7.27;2.73;;;;;;;4.47;73.92;100888.31;5048981;23;20217;-79
2021/03/29 04:40:57;;;;;;;18.80;12.53;;;;;;;4.55;73.85;100887.56;5053243;28;20298;-78
2021/03/29 04:44:23;;;;;;;9.30;4.50;;;;;;;4.47;73.50;100860.94;5062023;22;20262;-79
2021/03/29 04:48:21;;;;;;;7.67;4.17;;;;;;;4.73;73.79;100886.59;5109469;23;20255;-80
2021/03/29 04:52:19;;;;;;;6.03;3.17;;;;;;;4.85;73.73;100887.22;5029335;28;20238;-78
2021/03/29 04:55:56;;;;;;;5.67;3.80;;;;;;;4.97;73.23;100888.63;5028469;28;20272;-78
2021/03/29 04:59:13;;;;;;;6.00;4.03;;;;;;;5.05;73.23;100890.50;5075003;23;20293;-77
2021/03/29 05:02:48;;;;;;;5.30;3.33;;;;;;;5.15;73.15;100886.78;4991202;23;20237;-79
2021/03/29 05:05:49;;;;;;;4.50;2.50;;;;;;;5.24;72.23;100890.34;5052811;22;20261;-78
2021/03/29 05:09:34;;;;;;;7.83;3.10;;;;;;;5.29;72.38;100891.53;5033737;23;20236;-79
2021/03/29 05:13:44;;;;;;;6.33;2.97;;;;;;;5.29;72.30;100878.25;5044348;23;20236;-79
2021/03/29 05:17:40;;;;;;;7.13;2.87;;;;;;;5.50;72.13;100904.50;5027405;23;20240;-79
2021/03/29 05:21:16;;;;;;;7.23;2.97;;;;;;;5.59;71.83;100906.22;5039402;23;20257;-79
2021/03/29 05:24:54;;;;;;;20.73;3.77;;;;;;;5.68;71.59;100907.09;5052479;28;20192;-79
2021/03/29 05:28:28;;;;;;;6.70;2.70;;;;;;;5.77;71.76;100908.81;5114129;23;20242;-79
2021/03/29 05:31:29;;;;;;;9.40;3.30;;;;;;;5.88;71.62;100916.53;5047246;23;20221;-79
2021/03/29 05:34:35;;;;;;;7.23;2.60;;;;;;;5.96;70.92;100905.13;5071815;23;20249;-79
2021/03/29 05:37:50;;;;;;;4.00;2.57;;;;;;;6.05;70.94;100914.81;5058517;23;20286;-79
2021/03/29 05:41:29;;;;;;;18.87;11.07;;;;;;;6.03;70.51;100898.16;5021101;28;20217;-79
2021/03/29 05:44:44;;;;;;;14.30;8.23;;;;;;;6.29;70.41;100922.06;5047119;23;20303;-79
2021/03/29 05:48:20;;;;;;;9.40;3.40;;;;;;;6.44;69.69;100920.47;5064032;28;20288;-79
2021/03/29 05:51:46;;;;;;;7.10;2.90;;;;;;;6.55;69.09;100920.97;5058895;28;20213;-79
2021/03/29 05:54:48;;;;;;;6.13;2.50;;;;;;;6.72;68.69;100919.19;5029546;23;20239;-79
2021/03/29 06:01:54;;;;;;;5.90;2.70;;;;;;;7.04;67.63;100916.59;5067975;23;20287;-79
2021/03/29 06:05:00;;;;;;;6.13;2.60;;;;;;;7.29;66.91;100927.22;5054213;28;20209;-79
2021/03/29 06:08:12;;;;;;;10.27;2.83;;;;;;;7.43;67.12;100932.72;5072823;28;20204;-79
2021/03/29 06:15:15;;;;;;;3.80;2.80;;;;;;;7.76;65.36;100933.53;5035573;28;20225;-79
2021/03/29 06:18:35;;;;;;;7.70;2.73;;;;;;;7.83;64.84;100928.34;5041095;23;20221;-79
2021/03/29 06:23:04;;;;;;;6.40;2.60;;;;;;;7.87;65.24;100919.00;5071495;28;20221;-79
2021/03/29 06:27:21;;;;;;;7.67;2.70;;;;;;;7.97;65.25;100939.16;5078069;23;20224;-79
2021/03/29 06:31:20;;;;;;;9.77;2.67;;;;;;;8.13;63.84;100932.91;5076509;28;20231;-79
2021/03/29 06:35:21;;;;;;;9.57;3.13;;;;;;;8.24;63.05;100935.22;5065549;23;20231;-79
2021/03/29 06:39:15;;;;;;;6.73;2.60;;;;;;;8.20;62.18;100901.88;5068814;22;20233;-79
2021/03/29 06:42:24;;;;;;;6.77;2.47;;;;;;;8.70;61.47;100928.19;5070315;28;20244;-79
2021/03/29 06:45:51;;;;;;;19.83;3.33;;;;;;;8.89;60.84;100928.72;5071690;28;20217;-78
2021/03/29 06:49:21;;;;;;;5.20;2.40;;;;;;;9.28;60.78;100948.19;5191214;23;20235;-77
2021/03/29 06:52:34;;;;;;;12.67;3.17;;;;;;;9.36;59.37;100918.69;5050514;23;20226;-79
2021/03/29 06:55:35;;;;;;;9.80;4.33;;;;;;;9.55;58.38;100890.59;5038820;28;20222;-80
2021/03/29 06:58:31;;;;;;;9.20;2.67;;;;;;;10.02;57.53;100941.94;5038385;28;20223;-79
2021/03/29 07:01:50;;;;;;;5.83;3.00;;;;;;;10.15;57.11;100935.94;5052402;28;20186;-79
2021/03/29 07:04:27;;;;;;;7.17;2.97;;;;;;;10.51;56.34;100949.41;5004996;28;20237;-79
2021/03/29 07:07:20;;;;;;;9.57;3.73;;;;;;;10.63;56.21;100955.97;5036708;23;20225;-79
2021/03/29 07:10:30;;;;;;;17.03;3.80;;;;;;;10.71;55.56;100950.50;5144597;23;20267;-79
2021/03/29 07:13:34;;;;;;;11.97;3.23;;;;;;;10.82;54.40;100925.91;5093809;23;20233;-79
2021/03/29 07:17:03;;;;;;;6.43;2.90;;;;;;;11.39;53.72;100960.69;5062180;22;20213;-79
2021/03/29 07:23:54;;;;;;;9.70;3.03;;;;;;;11.95;51.69;100928.53;5095144;23;20229;-79
2021/03/29 07:27:35;;;;;;;10.37;2.83;;;;;;;12.46;50.73;100953.19;5076207;28;20217;-79
2021/03/29 07:31:36;;;;;;;7.50;2.70;;;;;;;13.17;49.02;100959.03;5050386;23;20253;-80
2021/03/29 07:35:18;;;;;;;8.60;2.73;;;;;;;13.59;48.04;100976.69;5050400;23;20298;-80
2021/03/29 07:39:15;;;;;;;8.13;2.80;;;;;;;13.60;46.90;100976.50;5025431;23;20668;-80
2021/03/29 07:42:51;;;;;;;9.43;5.17;;;;;;;13.66;46.48;100967.59;4995617;28;20242;-79
2021/03/29 07:46:47;;;;;;;12.50;6.30;;;;;;;13.92;46.17;100979.38;5023292;23;20297;-80
2021/03/29 07:50:31;;;;;;;9.73;2.53;;;;;;;14.57;44.70;100981.13;5042851;22;20313;-79
2021/03/29 08:00:48;;;;;;;7.33;3.00;;;;;;;15.50;42.22;100976.88;5089564;23;20221;-77
2021/03/29 08:04:10;;;;;;;7.93;2.90;;;;;;;15.80;41.36;100950.06;5071369;23;20306;-77
2021/03/29 08:08:48;;;;;;;6.83;2.57;;;;;;;16.19;39.91;100984.03;5046736;23;20240;-77
2021/03/29 08:12:37;;;;;;;5.90;2.60;;;;;;;16.68;38.35;100985.78;5068885;23;20297;-78
2021/03/29 08:16:42;;;;;;;6.40;2.90;;;;;;;16.89;38.57;100982.59;5075091;23;20229;-78
2021/03/29 08:20:52;;;;;;;11.70;3.47;;;;;;;16.97;39.67;100982.28;5014855;28;20230;-77
2021/03/29 08:24:31;;;;;;;9.07;3.10;;;;;;;17.37;39.15;100987.97;5019993;28;20214;-77
2021/03/29 08:28:26;;;;;;;10.87;2.50;;;;;;;17.14;36.06;100982.47;5085111;23;20231;-77
2021/03/29 08:32:08;;;;;;;5.57;2.87;;;;;;;17.78;34.77;100979.00;5015330;28;20266;-78
2021/03/29 08:35:21;;;;;;;5.13;2.60;;;;;;;17.35;34.58;100954.88;5158492;23;20243;-76
2021/03/29 08:38:51;;;;;;;9.53;2.90;;;;;;;18.22;34.22;100990.31;5003704;23;20239;-84
2021/03/29 08:41:58;;;;;;;4.93;2.57;;;;;;;18.49;32.90;100986.03;5000224;28;20220;-89
2021/03/29 08:45:27;;;;;;;4.53;2.60;;;;;;;18.56;31.55;100981.34;4984056;28;20237;-90
2021/03/29 08:51:23;;;;;;;6.40;2.47;;;;;;;18.23;31.60;100956.72;4995463;28;20234;-92
2021/03/29 08:54:14;;;;;;;17.40;3.07;;;;;;;18.17;31.88;100984.78;4982230;28;20227;-94
2021/03/29 08:56:50;;;;;;;10.37;2.70;;;;;;;18.28;32.10;100992.94;4974478;28;20273;-91
2021/03/29 08:59:30;;;;;;;5.73;2.23;;;;;;;18.17;31.91;100976.66;4991953;28;20243;-91
2021/03/29 09:02:01;;;;;;;9.33;2.90;;;;;;;18.71;31.18;100984.38;4995333;28;20232;-94
2021/03/29 09:04:33;;;;;;;4.50;2.50;;;;;;;18.41;31.87;100973.69;4978447;28;20564;-87
2021/03/29 09:07:06;;;;;;;7.37;2.80;;;;;;;18.20;31.96;100960.72;4974837;28;20228;-89
2021/03/29 09:09:36;;;;;;;6.43;2.60;;;;;;;18.25;31.35;100965.44;4989728;28;20691;-86
2021/03/29 09:12:06;;;;;;;7.70;3.10;;;;;;;17.90;30.67;100944.59;4992907;28;20666;-92
2021/03/29 09:14:40;;;;;;;8.47;3.13;;;;;;;17.76;32.18;100951.31;4989270;28;20235;-94
2021/03/29 09:17:20;;;;;;;8.30;2.70;;;;;;;17.89;32.28;100969.22;4982384;28;20547;-85
2021/03/29 09:19:52;;;;;;;3.60;2.77;;;;;;;17.45;32.16;100959.72;4995309;28;20227;-84
2021/03/29 09:22:34;;;;;;;15.23;2.90;;;;;;;17.08;32.64;100940.06;4980061;28;20274;-94
2021/03/29 09:25:06;;;;;;;6.23;2.97;;;;;;;17.13;32.81;100956.44;4996209;28;20220;-88
2021/03/29 09:27:42;;;;;;;5.03;2.70;;;;;;;16.81;32.99;100957.72;4979035;28;20314;-89
2021/03/29 09:30:21;;;;;;;4.07;2.70;;;;;;;16.41;33.70;100950.06;4997230;28;20223;-85
2021/03/29 09:33:12;;;;;;;5.23;2.73;;;;;;;16.42;33.64;100961.72;4984606;28;20227;-85
2021/03/29 09:35:44;;;;;;;5.37;2.97;;;;;;;16.44;34.10;100959.59;4981498;28;20250;-88
2021/03/29 09:38:44;;;;;;;5.17;2.77;;;;;;;16.77;33.83;100964.63;4986449;28;20231;-90
2021/03/29 09:41:35;;;;;;;5.80;2.57;;;;;;;16.90;33.71;100949.06;5019810;28;20222;-92
2021/03/29 09:44:09;;;;;;;8.57;3.17;;;;;;;17.21;32.60;100966.97;5030708;28;20560;-94
2021/03/29 09:46:38;;;;;;;7.17;2.73;;;;;;;16.97;33.32;100935.44;4984803;28;20593;-86
2021/03/29 09:49:17;;;;;;;7.00;3.07;;;;;;;16.91;33.77;100941.75;5024678;28;20324;-90
2021/03/29 09:51:49;;;;;;;7.40;2.80;;;;;;;16.93;33.07;100945.91;5021920;28;20540;-84
2021/03/29 09:54:39;;;;;;;15.67;3.17;;;;;;;17.13;33.35;100961.84;5029552;28;20237;-91
2021/03/29 09:57:27;;;;;;;14.30;3.60;;;;;;;16.96;33.65;100955.44;5001116;28;20226;-86
2021/03/29 09:59:56;;;;;;;4.80;2.87;;;;;;;16.72;31.44;100919.31;5026326;28;20219;-92
2021/03/29 10:02:26;;;;;;;3.57;2.50;;;;;;;16.98;31.44;100934.38;5016634;28;20261;-94
2021/03/29 10:05:08;;;;;;;5.47;2.73;;;;;;;17.16;31.20;100928.91;5001053;28;20232;-82
2021/03/29 10:07:55;;;;;;;5.40;2.90;;;;;;;17.29;31.44;100950.38;5016338;28;20234;-88
2021/03/29 10:10:33;;;;;;;4.87;2.73;;;;;;;17.23;31.36;100923.38;5025824;28;20236;-91
2021/03/29 10:13:11;;;;;;;6.63;2.47;;;;;;;17.31;31.94;100923.06;5019559;28;20222;-92
2021/03/29 10:15:42;;;;;;;5.80;2.70;;;;;;;17.50;30.82;100941.69;4999475;28;20225;-82
2021/03/29 10:18:15;;;;;;;5.93;2.63;;;;;;;17.60;31.06;100954.69;4989920;28;20238;-87
2021/03/29 10:20:45;;;;;;;6.63;2.60;;;;;;;17.26;30.75;100922.94;5016131;28;20226;-91
2021/03/29 10:23:21;;;;;;;5.27;2.20;;;;;;;17.57;31.12;100936.16;5036975;28;20218;-89
2021/03/29 10:26:11;;;;;;;4.97;2.20;;;;;;;17.60;29.89;100928.44;5000623;28;20280;-82
2021/03/29 10:28:54;;;;;;;4.70;1.80;;;;;;;17.71;30.16;100931.38;5015877;28;20227;-90
2021/03/29 10:31:24;;;;;;;4.93;2.10;;;;;;;17.74;29.54;100936.31;4996591;28;20248;-93
2021/03/29 10:33:57;;;;;;;3.37;1.73;;;;;;;17.60;29.09;100900.50;5000571;28;20250;-81
2021/03/29 10:36:28;;;;;;;12.03;7.70;;;;;;;17.73;29.68;100923.84;5019463;28;20229;-91
2021/03/29 10:38:57;;;;;;;5.23;2.20;;;;;;;17.76;29.09;100907.94;5028909;28;20226;-92
2021/03/29 10:41:26;;;;;;;5.63;1.97;;;;;;;18.01;28.30;100916.63;4999927;28;20575;-88
2021/03/29 10:43:55;;;;;;;4.90;2.50;;;;;;;18.06;28.13;100898.84;4999781;28;20230;-91
2021/03/29 10:46:25;;;;;;;5.37;2.30;;;;;;;18.12;28.45;100906.84;5000548;28;20226;-93
2021/03/29 10:48:57;;;;;;;6.20;2.10;;;;;;;18.65;27.71;100900.38;5017949;28;20227;-93
2021/03/29 10:51:35;;;;;;;3.90;1.90;;;;;;;18.98;27.21;100897.75;5001838;28;20625;-89
2021/03/29 10:54:13;;;;;;;6.93;2.27;;;;;;;20.01;25.56;100910.88;5004714;28;20639;-88
2021/03/29 10:56:46;;;;;;;5.60;2.00;;;;;;;20.43;25.13;100872.25;5012497;28;20250;-94
2021/03/29 10:59:19;;;;;;;4.40;1.80;;;;;;;20.88;25.23;100874.63;4997165;28;20227;-87
2021/03/29 11:01:56;;;;;;;9.03;2.30;;;;;;;21.38;23.90;100893.38;5016799;28;20262;-93
2021/03/29 11:04:31;;;;;;;4.93;1.73;;;;;;;21.81;23.24;100886.88;5014705;28;20242;-87
2021/03/29 11:07:08;;;;;;;3.83;1.30;;;;;;;21.82;23.55;100897.53;4965544;28;20258;-86
2021/03/29 11:09:40;;;;;;;3.07;1.43;;;;;;;21.88;23.36;100880.09;4980691;28;20338;-90
2021/03/29 11:12:13;;;;;;;2.97;1.50;;;;;;;21.78;22.73;100880.06;5003812;28;20697;-93
2021/03/29 11:14:44;;;;;;;5.23;1.30;;;;;;;21.90;21.72;100882.56;4995812;28;20227;-92
2021/03/29 11:17:14;;;;;;;4.70;1.53;;;;;;;22.25;21.91;100871.06;5002513;28;20236;-85
2021/03/29 11:19:51;;;;;;;4.03;1.97;;;;;;;22.22;22.52;100879.75;4994687;28;20224;-86
2021/03/29 11:22:24;;;;;;;4.33;1.80;;;;;;;22.62;22.48;100863.53;4979849;28;20244;-92
2021/03/29 11:24:53;;;;;;;5.53;1.70;;;;;;;22.40;21.52;100877.38;4998659;28;20317;-85
2021/03/29 11:27:21;;;;;;;5.83;1.70;;;;;;;22.03;21.88;100863.00;4999739;28;20583;-82
2021/03/29 11:29:53;;;;;;;2.50;1.40;;;;;;;22.22;21.16;100869.66;5012971;28;20231;-83
2021/03/29 11:32:26;;;;;;;3.57;1.40;;;;;;;21.89;21.00;100843.53;4996695;28;20235;-93
2021/03/29 11:34:55;;;;;;;3.40;1.50;;;;;;;21.63;21.09;100852.66;4966868;28;20232;-93
2021/03/29 11:37:30;;;;;;;3.33;1.37;;;;;;;21.09;21.47;100832.84;5000604;28;20222;-88
2021/03/29 11:40:02;;;;;;;4.93;1.70;;;;;;;21.10;22.17;100848.13;5014872;28;20220;-86
2021/03/29 11:42:37;;;;;;;5.43;1.67;;;;;;;21.24;22.60;100848.56;4999327;28;20251;-93
2021/03/29 11:45:09;;;;;;;3.80;1.40;;;;;;;21.06;22.00;100852.47;4982034;28;20335;-90
2021/03/29 11:47:39;;;;;;;3.90;1.80;;;;;;;20.64;22.44;100817.75;4985513;28;20564;-92
2021/03/29 11:50:13;;;;;;;5.40;1.60;;;;;;;20.57;23.16;100840.84;4997769;28;20246;-92
2021/03/29 11:52:44;;;;;;;3.77;1.67;;;;;;;20.50;22.92;100840.19;4981966;28;20229;-86
2021/03/29 11:55:15;;;;;;;4.07;1.60;;;;;;;20.16;21.80;100839.47;4984761;28;20334;-92
2021/03/29 11:57:47;;;;;;;2.17;1.30;;;;;;;20.13;22.08;100835.38;5001318;28;20650;-86
2021/03/29 12:00:24;;;;;;;4.40;1.70;;;;;;;20.56;23.20;100826.41;5000019;28;20230;-94
2021/03/29 12:05:38;;;;;;;3.47;1.40;;;;;;;21.85;20.19;100822.50;5019397;28;20230;-86
2021/03/29 12:08:18;;;;;;;3.57;1.40;;;;;;;22.37;20.35;100804.19;4987457;28;20265;-82
2021/03/29 12:13:43;;;;;;;2.97;1.70;;;;;;;22.72;19.85;100830.78;5001599;28;20247;-90
2021/03/29 12:16:17;;;;;;;3.17;1.50;;;;;;;22.14;20.19;100801.13;5019251;28;20277;-86
2021/03/29 12:18:54;;;;;;;4.70;1.60;;;;;;;22.85;20.33;100804.84;4995283;28;20260;-87
2021/03/29 12:21:35;;;;;;;4.40;1.73;;;;;;;23.04;19.23;100821.53;5004051;28;20225;-92
2021/03/29 12:24:10;;;;;;;2.93;1.30;;;;;;;23.43;19.35;100821.78;5001453;28;20233;-92
2021/03/29 12:26:43;;;;;;;2.17;1.30;;;;;;;23.40;19.51;100819.59;5011332;28;20547;-88
2021/03/29 12:29:19;;;;;;;3.70;1.63;;;;;;;23.23;19.93;100817.16;4998785;28;20584;-91
2021/03/29 12:31:54;;;;;;;3.10;1.30;;;;;;;23.03;19.40;100819.91;4996789;28;20222;-90
2021/03/29 12:34:29;;;;;;;3.17;1.67;;;;;;;22.85;19.70;100801.31;4998052;28;20673;-91
2021/03/29 12:37:00;;;;;;;3.40;1.67;;;;;;;22.90;20.00;100802.13;4997557;28;20236;-85
2021/03/29 12:39:44;;;;;;;4.50;1.60;;;;;;;22.62;19.62;100816.28;4998827;28;20229;-94
2021/03/29 12:42:24;;;;;;;2.33;1.20;;;;;;;22.34;20.80;100807.47;5008606;28;20303;-90
2021/03/29 12:45:01;;;;;;;3.43;1.43;;;;;;;22.47;20.74;100791.66;5001782;28;20574;-93
2021/03/29 12:47:36;;;;;;;3.87;1.70;;;;;;;22.06;20.95;100804.38;5024438;28;20225;-89
2021/03/29 12:50:12;;;;;;;4.60;1.63;;;;;;;22.03;21.40;100816.63;5001879;28;20323;-89
2021/03/29 12:52:51;;;;;;;3.33;1.40;;;;;;;21.96;21.02;100794.22;5015698;28;20669;-94
2021/03/29 12:55:29;;;;;;;3.13;1.30;;;;;;;21.71;21.29;100804.97;4966464;28;20231;-93
2021/03/29 12:58:01;;;;;;;3.90;1.80;;;;;;;22.55;21.03;100800.13;4992375;28;20689;-89
2021/03/29 13:00:33;;;;;;;4.73;1.57;;;;;;;22.42;20.46;100764.34;5016945;28;20312;-89
2021/03/29 13:03:09;;;;;;;2.70;1.60;;;;;;;22.73;20.59;100783.25;4983529;28;20595;-91
2021/03/29 13:06:03;;;;;;;5.57;1.90;;;;;;;22.26;20.92;100794.31;5022815;28;20231;-89
2021/03/29 13:08:35;;;;;;;3.93;1.67;;;;;;;22.28;21.11;100780.41;5021921;28;20306;-85
2021/03/29 13:14:04;;;;;;;3.60;1.80;;;;;;;21.81;21.58;100794.94;5005457;28;20247;-93
2021/03/29 13:16:40;;;;;;;7.40;1.80;;;;;;;21.38;22.30;100812.41;5006537;28;20641;-89
2021/03/29 13:19:22;;;;;;;4.23;1.83;;;;;;;21.13;22.37;100790.44;4983272;28;20507;-89
2021/03/29 13:22:00;;;;;;;3.43;1.57;;;;;;;20.75;22.24;100782.47;4999503;28;20224;-94
2021/03/29 13:24:42;;;;;;;6.23;1.60;;;;;;;20.16;23.13;100755.97;5037754;28;20282;-90
2021/03/29 13:27:24;;;;;;;4.60;1.80;;;;;;;20.18;23.59;100786.47;5018674;28;20315;-89
2021/03/29 13:30:11;;;;;;;3.93;1.80;;;;;;;19.99;24.15;100768.84;5002386;28;20813;-91
2021/03/29 13:33:01;;;;;;;3.87;1.50;;;;;;;19.99;23.73;100770.72;4992301;28;20660;-93
2021/03/29 13:35:47;;;;;;;4.77;1.57;;;;;;;20.08;23.60;100763.75;5006232;28;20317;-92
2021/03/29 13:38:33;;;;;;;4.73;1.83;;;;;;;20.25;23.97;100782.75;5001016;28;20310;-93
2021/03/29 13:41:08;;;;;;;4.90;2.00;;;;;;;19.78;24.30;100767.75;4979104;28;20220;-94
2021/03/29 13:43:49;;;;;;;3.20;1.80;;;;;;;19.63;24.57;100766.75;5010241;28;20638;-89
2021/03/29 13:46:32;;;;;;;4.40;1.80;;;;;;;19.56;24.41;100760.66;5016225;28;20227;-96
2021/03/29 13:49:13;;;;;;;3.37;1.80;;;;;;;19.75;24.58;100764.72;5012732;28;20219;-85
2021/03/29 13:52:01;;;;;;;5.70;1.80;;;;;;;19.60;24.92;100770.78;5017197;28;20646;-84
2021/03/29 13:54:46;;;;;;;2.33;1.40;;;;;;;19.50;24.50;100761.69;5016559;28;20310;-84
2021/03/29 13:57:32;;;;;;;3.53;1.70;;;;;;;20.01;24.45;100788.47;5016871;28;20646;-88
2021/03/29 14:00:12;;;;;;;4.07;1.67;;;;;;;19.92;24.38;100787.25;5011293;28;20224;-85
2021/03/29 14:02:55;;;;;;;5.93;1.73;;;;;;;19.94;24.62;100785.09;4999518;28;20311;-92
2021/03/29 14:05:35;;;;;;;5.70;2.00;;;;;;;19.91;24.27;100782.88;5001534;28;20231;-89
2021/03/29 14:08:11;;;;;;;5.47;1.87;;;;;;;20.01;24.69;100782.19;5016068;28;20215;-85
2021/03/29 14:10:46;;;;;;;4.23;1.80;;;;;;;19.65;24.83;100729.25;5001080;28;20306;-90
2021/03/29 14:13:31;;;;;;;18.67;2.70;;;;;;;19.66;25.22;100780.66;5016538;28;20689;-85
2021/03/29 14:16:08;;;;;;;3.87;1.57;;;;;;;19.31;25.24;100752.97;5000322;28;20910;-89
2021/03/29 14:18:45;;;;;;;4.03;1.50;;;;;;;19.14;25.70;100768.44;4981160;28;20544;-93
2021/03/29 14:21:24;;;;;;;3.90;1.83;;;;;;;19.17;25.84;100752.50;4980715;28;20219;-95
2021/03/29 14:24:03;;;;;;;3.23;1.40;;;;;;;19.35;25.84;100767.69;4979232;28;20227;-96
2021/03/29 14:26:43;;;;;;;2.70;1.63;;;;;;;19.22;25.47;100773.47;4975701;28;20243;-84
2021/03/29 14:29:26;;;;;;;4.03;1.73;;;;;;;19.09;25.79;100760.22;4996477;28;20243;-85
2021/03/29 14:32:01;;;;;;;5.60;1.90;;;;;;;19.20;25.89;100753.88;4985542;28;20654;-84
2021/03/29 14:34:37;;;;;;;3.43;1.80;;;;;;;19.24;26.22;100757.72;4985745;28;20223;-87
2021/03/29 14:39:59;;;;;;;4.63;1.60;;;;;;;19.20;26.01;100764.75;4987302;28;20219;-91
2021/03/29 14:42:46;;;;;;;4.70;2.00;;;;;;;19.09;26.26;100757.50;4980771;28;20427;-91
2021/03/29 14:45:28;;;;;;;2.00;1.53;;;;;;;19.17;26.22;100743.50;4994464;28;20274;-93
2021/03/29 14:48:09;;;;;;;5.53;1.80;;;;;;;19.24;26.20;100739.53;4995088;28;20227;-89
2021/03/29 14:50:55;;;;;;;4.33;1.90;;;;;;;19.36;26.11;100756.53;4995208;28;20309;-90
2021/03/29 14:53:35;;;;;;;4.17;1.97;;;;;;;19.34;26.17;100749.72;4997091;28;20656;-87
2021/03/29 14:56:10;;;;;;;17.43;2.93;;;;;;;19.40;26.36;100735.16;4993203;28;20224;-86
2021/03/29 14:58:53;;;;;;;16.33;2.23;;;;;;;19.48;26.34;100745.63;4991790;28;20567;-80
2021/03/29 15:01:33;;;;;;;8.37;2.30;;;;;;;19.46;26.52;100746.91;4983348;28;20223;-90
2021/03/29 15:04:08;;;;;;;5.67;1.80;;;;;;;19.51;26.81;100760.59;4992897;28;20219;-91
2021/03/29 15:06:44;;;;;;;5.20;1.83;;;;;;;19.23;26.63;100746.03;5005543;28;20284;-87